Página principal
METAR-TAF:

METAR-TAF

Aeroportos :

Caracas, Venezuela

Aeroporto Internacional Simón Bolívar

latitude: 10-36N, longitude: 066-59W, altura: 43 m

Observação actual do tempo

O boletim foi feito há 2 horas e 57 minutos, às 03:00 UTC
Vento 3 kt de sudeste
Temperatura 28°C
Humidade 74%
Pressão 1010 hPa
Visibilidade 10 km ou mais
Nuvens dispersasa uma altura de 1600 ft

METAR: SVMI 200300Z 14003KT 9999 SCT016 28/23 Q1010

Hora: 01:57 (05:57 UTC)

Previsão

O boletim foi feito há 1 hora e 57 minutos, às 04:00 UTC
Previsão válida de 20 às 06 UTC a 21 às 06 UTC
Vento kt de norte
Visibilidade 10 km ou mais
Nuvens dispersasa uma altura de 1600 ft
Poucas nuvensa uma altura de 1600 ft

TAF: SVMI 200400Z 2006/2106 00000KT 9999 SCT016 TX33/18Z TN24/08ZTEMPO 2006/2010 FEW016

Observações e previsões do tempo de mais de 4000 aeroportos (mensagens METAR e TAF).

As estações disponíveis são os pontos amarelos e vermelhos sobre o mapa.

Mova o rato sobre o mapa para ver o nome da estação.

Depois clique no ponto para visualizar as observações e previsões meteorológicas.

Para alterar o mapa : clique nos botões verdes com uma cruz preta para aumentar o zoom; no botão verde com uma pitada de zoom; ou nas setas verdes para mapas adjacentes.


METAR-TAF: